Time;durP1;ratioP1;P1;durP2;ratioP2;P2;SDS_P1;SDS_P2;PMS_P1;PMS_P2;Temp;Humidity;BMP_temperature;BMP_pressure;BME280_temperature;BME280_humidity;BME280_pressure;Samples;Min_cycle;Max_cycle;Signal;HPM_P1;HPM_P2
2024/02/02 00:01:19;;;;;;;7.60;2.70;;;;;;;2.90;76.60;97321.30;109129;1268;24209;-76
2024/02/02 00:03:51;;;;;;;9.90;4.20;;;;;;;2.89;76.55;97326.67;109044;1266;152596;-76
2024/02/02 00:06:25;;;;;;;11.00;3.30;;;;;;;2.88;76.57;97325.23;109128;1270;22535;-76
2024/02/02 00:08:56;;;;;;;6.50;2.10;;;;;;;2.89;76.58;97315.31;109112;1272;22566;-76
2024/02/02 00:11:29;;;;;;;5.60;2.30;;;;;;;2.89;76.44;97329.61;109153;1272;24241;-76
2024/02/02 00:14:03;;;;;;;8.80;3.10;;;;;;;2.89;76.54;97328.77;109126;1272;25253;-76
2024/02/02 00:16:38;;;;;;;10.20;2.90;;;;;;;2.90;76.40;97323.41;109132;1270;22555;-75
2024/02/02 00:19:12;;;;;;;9.50;3.40;;;;;;;2.90;76.26;97328.96;109139;1273;22568;-76
2024/02/02 00:21:43;;;;;;;8.60;2.70;;;;;;;2.89;76.31;97326.88;109126;1267;22625;-76
2024/02/02 00:24:15;;;;;;;10.40;2.70;;;;;;;2.89;76.16;97327.48;109124;1267;22588;-76
2024/02/02 00:26:48;;;;;;;5.80;2.50;;;;;;;2.88;76.23;97331.64;109173;1273;22524;-76
2024/02/02 00:29:22;;;;;;;7.30;3.20;;;;;;;2.88;76.21;97325.64;109143;1273;22589;-76
2024/02/02 00:31:53;;;;;;;6.80;2.70;;;;;;;2.88;76.34;97336.95;109153;1267;22832;-76
2024/02/02 00:34:24;;;;;;;7.60;3.20;;;;;;;2.87;76.32;97336.52;109128;1273;23996;-76
2024/02/02 00:36:58;;;;;;;9.90;3.50;;;;;;;2.88;76.37;97333.13;109142;1272;22895;-76
2024/02/02 00:39:29;;;;;;;9.50;3.20;;;;;;;2.86;76.46;97333.52;109153;1267;22526;-76
2024/02/02 00:42:03;;;;;;;7.80;2.90;;;;;;;2.86;76.43;97327.06;109134;1267;24465;-76
2024/02/02 00:44:34;;;;;;;11.90;3.70;;;;;;;2.85;76.45;97328.44;109152;1270;22475;-76
2024/02/02 00:47:08;;;;;;;8.40;2.50;;;;;;;2.83;76.61;97328.05;109097;1267;22536;-76
2024/02/02 00:49:42;;;;;;;9.50;3.30;;;;;;;2.81;76.84;97334.63;109105;1273;22548;-75
2024/02/02 00:52:15;;;;;;;9.60;2.70;;;;;;;2.77;77.03;97334.64;108956;1270;23187;-76
2024/02/02 00:54:49;;;;;;;13.00;4.00;;;;;;;2.74;77.26;97342.92;109073;1270;22495;-76
2024/02/02 00:57:25;;;;;;;11.80;3.00;;;;;;;2.72;77.30;97333.06;109047;1267;22662;-75
2024/02/02 00:59:58;;;;;;;10.70;3.20;;;;;;;2.72;77.42;97333.39;109047;1273;22545;-75
2024/02/02 01:02:32;;;;;;;15.10;3.80;;;;;;;2.72;77.43;97331.54;109070;1267;22546;-76
2024/02/02 01:05:08;;;;;;;12.90;3.50;;;;;;;2.71;77.32;97334.04;109051;1273;22474;-76
2024/02/02 01:07:41;;;;;;;10.40;3.40;;;;;;;2.72;77.27;97330.77;109060;1273;22524;-76
2024/02/02 01:10:19;;;;;;;10.20;3.20;;;;;;;2.71;77.30;97337.23;109097;1268;22545;-76
2024/02/02 01:12:50;;;;;;;10.90;3.00;;;;;;;2.70;77.31;97336.30;109071;1273;22524;-76
2024/02/02 01:15:24;;;;;;;12.40;3.70;;;;;;;2.70;77.31;97327.23;109100;1273;24231;-76
2024/02/02 01:17:55;;;;;;;8.90;3.00;;;;;;;2.71;77.21;97334.20;109072;1270;22521;-76
2024/02/02 01:20:26;;;;;;;8.30;2.70;;;;;;;2.72;77.15;97335.89;109093;1270;23830;-76
2024/02/02 01:22:58;;;;;;;9.70;3.20;;;;;;;2.72;77.13;97336.73;109006;1270;23778;-76
2024/02/02 01:25:31;;;;;;;7.80;3.10;;;;;;;2.72;77.13;97331.77;109066;1273;22520;-77
2024/02/02 01:28:05;;;;;;;13.80;3.10;;;;;;;2.72;76.98;97334.97;109088;1273;22521;-76
2024/02/02 01:30:36;;;;;;;9.30;3.30;;;;;;;2.72;76.91;97335.37;109077;1268;22535;-76
2024/02/02 01:33:07;;;;;;;8.80;3.00;;;;;;;2.72;76.79;97340.77;109039;1273;23253;-76
2024/02/02 01:35:38;;;;;;;8.70;3.30;;;;;;;2.71;76.83;97342.58;109121;1267;22521;-76
2024/02/02 01:38:10;;;;;;;14.30;2.50;;;;;;;2.71;76.93;97336.34;109081;1273;25413;-76
2024/02/02 01:40:41;;;;;;;7.40;2.40;;;;;;;2.71;76.68;97335.20;109107;1273;25927;-76
2024/02/02 01:43:14;;;;;;;6.00;2.60;;;;;;;2.72;76.69;97334.85;109059;1273;22564;-76
2024/02/02 01:45:48;;;;;;;10.40;2.90;;;;;;;2.72;76.51;97336.69;109059;1271;22482;-76
2024/02/02 01:48:19;;;;;;;10.40;3.10;;;;;;;2.71;76.56;97336.34;109078;1267;22480;-76
2024/02/02 01:50:52;;;;;;;6.00;2.40;;;;;;;2.70;76.57;97330.50;109065;1270;23053;-76
2024/02/02 01:53:26;;;;;;;9.70;2.80;;;;;;;2.71;76.44;97332.99;109156;1269;24041;-76
2024/02/02 01:55:57;;;;;;;9.30;2.00;;;;;;;2.69;76.54;97338.64;109150;1266;22525;-76
2024/02/02 01:58:33;;;;;;;8.70;2.90;;;;;;;2.69;76.53;97332.89;109175;1267;22833;-76
2024/02/02 02:01:06;;;;;;;11.30;3.50;;;;;;;2.69;76.67;97336.07;109189;1273;22576;-76
2024/02/02 02:03:37;;;;;;;8.10;3.70;;;;;;;2.68;76.65;97333.45;109117;1273;22521;-76
2024/02/02 02:06:09;;;;;;;8.30;2.80;;;;;;;2.68;76.63;97326.21;109105;1267;22559;-76
2024/02/02 02:08:40;;;;;;;8.60;3.10;;;;;;;2.68;76.75;97326.97;109142;1266;22524;-76
2024/02/02 02:11:12;;;;;;;8.30;3.10;;;;;;;2.66;76.74;97323.22;109118;1272;22531;-76
2024/02/02 02:13:43;;;;;;;7.50;2.40;;;;;;;2.66;76.76;97323.41;109125;1272;22528;-76
2024/02/02 02:16:17;;;;;;;9.30;2.90;;;;;;;2.65;76.89;97319.67;109081;1268;22532;-76
2024/02/02 02:18:48;;;;;;;17.30;3.20;;;;;;;2.65;76.78;97321.25;109092;1273;24209;-76
2024/02/02 02:21:26;;;;;;;10.60;2.70;;;;;;;2.64;76.89;97321.58;109165;1270;22985;-76
2024/02/02 02:23:58;;;;;;;8.70;2.40;;;;;;;2.63;76.93;97318.25;109123;1266;22838;-76
2024/02/02 02:26:31;;;;;;;6.40;2.70;;;;;;;2.60;77.04;97328.41;109103;1269;22530;-76
2024/02/02 02:29:05;;;;;;;9.40;3.40;;;;;;;2.59;77.07;97327.10;109152;1272;25428;-76
2024/02/02 02:31:38;;;;;;;8.10;3.00;;;;;;;2.57;77.12;97317.45;109084;1266;22549;-76
2024/02/02 02:34:14;;;;;;;8.70;3.10;;;;;;;2.57;77.25;97327.80;109095;1272;22523;-76
2024/02/02 02:36:49;;;;;;;7.60;2.80;;;;;;;2.56;77.28;97335.52;109062;1267;22521;-76
2024/02/02 02:39:22;;;;;;;7.00;2.70;;;;;;;2.57;77.36;97335.48;109121;1272;22625;-76
2024/02/02 02:41:53;;;;;;;6.70;3.10;;;;;;;2.56;77.50;97338.96;109174;1272;23000;-76
2024/02/02 02:44:25;;;;;;;16.00;4.10;;;;;;;2.54;77.62;97337.08;109148;1254;22500;-76
2024/02/02 02:46:56;;;;;;;5.70;3.00;;;;;;;2.51;77.60;97333.23;109126;1272;22634;-76
2024/02/02 02:49:28;;;;;;;11.90;4.20;;;;;;;2.49;77.81;97332.48;109147;1272;24829;-76
2024/02/02 02:52:02;;;;;;;12.60;2.70;;;;;;;2.47;78.00;97329.69;109113;1269;23927;-76
2024/02/02 02:54:35;;;;;;;9.40;3.10;;;;;;;2.46;77.87;97323.77;109148;1267;22590;-76
2024/02/02 02:57:07;;;;;;;7.80;3.00;;;;;;;2.43;78.03;97323.88;109158;1272;22478;-76
2024/02/02 02:59:41;;;;;;;11.00;3.20;;;;;;;2.43;77.95;97342.60;109164;1272;22513;-76
2024/02/02 03:02:13;;;;;;;6.90;3.10;;;;;;;2.43;78.00;97338.45;109122;1266;22968;-77
2024/02/02 03:04:48;;;;;;;8.40;3.90;;;;;;;2.42;78.18;97333.18;109197;1267;22512;-76
2024/02/02 03:07:22;;;;;;;7.90;2.90;;;;;;;2.42;78.25;97330.29;109149;1266;24759;-76
2024/02/02 03:09:55;;;;;;;12.10;4.90;;;;;;;2.39;78.33;97326.70;109101;1272;24203;-76
2024/02/02 03:12:27;;;;;;;9.20;3.00;;;;;;;2.38;78.33;97341.11;109090;1266;22581;-76
2024/02/02 03:15:00;;;;;;;9.40;3.90;;;;;;;2.38;78.35;97337.33;109145;1266;22620;-76
2024/02/02 03:17:38;;;;;;;9.50;3.50;;;;;;;2.38;78.44;97342.36;109137;1266;23001;-76
2024/02/02 03:20:13;;;;;;;9.10;3.20;;;;;;;2.36;78.60;97342.77;109117;1273;22519;-76
2024/02/02 03:22:46;;;;;;;8.90;2.50;;;;;;;2.36;78.61;97347.36;109137;1250;24248;-76
2024/02/02 03:25:17;;;;;;;12.10;3.00;;;;;;;2.35;78.67;97345.67;109137;1272;23700;-76
2024/02/02 03:27:48;;;;;;;12.50;4.30;;;;;;;2.34;78.76;97348.10;109130;1273;25323;-76
2024/02/02 03:30:21;;;;;;;7.40;3.80;;;;;;;2.34;78.72;97345.27;109173;1273;22581;-76
2024/02/02 03:32:52;;;;;;;6.80;2.80;;;;;;;2.33;78.71;97339.33;109079;1272;22561;-76
2024/02/02 03:35:27;;;;;;;8.90;3.90;;;;;;;2.33;78.63;97357.33;109158;1272;22555;-76
2024/02/02 03:38:01;;;;;;;16.90;3.40;;;;;;;2.33;78.78;97356.69;109153;1273;23330;-76
2024/02/02 03:40:32;;;;;;;18.70;4.00;;;;;;;2.33;78.68;97356.52;109127;1272;23186;-76
2024/02/02 03:43:03;;;;;;;13.20;4.10;;;;;;;2.32;78.52;97348.23;109111;1266;22531;-76
2024/02/02 03:45:36;;;;;;;12.60;4.30;;;;;;;2.32;78.37;97359.30;109138;1269;22530;-76
2024/02/02 03:48:17;;;;;;;9.20;3.90;;;;;;;2.30;78.46;97356.49;109158;1273;22568;-76
2024/02/02 03:50:48;;;;;;;;;;;;;;;2.30;78.54;97359.88;109094;1273;22526;-76
2024/02/02 03:53:22;;;;;;;6.00;2.60;;;;;;;2.30;78.31;97365.75;109093;1270;24093;-76
2024/02/02 03:55:53;;;;;;;11.70;3.30;;;;;;;2.29;78.27;97366.77;109122;1269;22500;-76
2024/02/02 03:58:24;;;;;;;8.40;3.50;;;;;;;2.28;78.23;97362.73;109181;1273;22530;-76
2024/02/02 04:00:56;;;;;;;10.80;3.50;;;;;;;2.27;78.24;97366.05;109130;1266;22520;-76
2024/02/02 04:03:27;;;;;;;6.70;3.40;;;;;;;2.26;78.02;97372.05;109167;1272;22699;-76
2024/02/02 04:05:59;;;;;;;9.80;3.30;;;;;;;2.25;77.98;97375.94;109012;1273;22461;-76
2024/02/02 04:08:35;;;;;;;11.50;3.40;;;;;;;2.24;77.89;97373.29;109116;1266;22823;-76
2024/02/02 04:11:08;;;;;;;7.50;3.20;;;;;;;2.25;77.73;97383.98;109139;1265;22549;-76
2024/02/02 04:13:40;;;;;;;9.00;3.80;;;;;;;2.23;77.68;97374.73;109102;1268;22523;-76
2024/02/02 04:16:12;;;;;;;12.20;5.00;;;;;;;2.23;77.71;97377.91;109108;1273;25068;-76
2024/02/02 04:18:45;;;;;;;8.90;4.30;;;;;;;2.21;76.96;97369.36;109129;1273;22514;-76
2024/02/02 04:21:18;;;;;;;13.20;4.50;;;;;;;2.20;76.77;97365.98;109125;1272;25414;-76
2024/02/02 04:23:49;;;;;;;11.70;5.70;;;;;;;2.19;76.53;97363.40;109085;1266;23584;-76
2024/02/02 04:26:20;;;;;;;5.50;3.00;;;;;;;2.17;76.73;97379.35;109097;1266;22527;-76
2024/02/02 04:28:51;;;;;;;8.90;4.00;;;;;;;2.17;76.56;97375.61;109125;1273;22483;-76
2024/02/02 04:31:24;;;;;;;14.20;5.40;;;;;;;2.17;76.41;97381.05;109072;1266;22531;-76
2024/02/02 04:33:57;;;;;;;7.50;3.20;;;;;;;2.16;76.55;97374.37;109105;1272;22553;-76
2024/02/02 04:36:29;;;;;;;7.80;3.60;;;;;;;2.14;76.67;97383.88;109083;1269;24224;-76
2024/02/02 04:39:00;;;;;;;7.40;2.90;;;;;;;2.12;76.75;97397.88;109116;1266;22838;-76
2024/02/02 04:41:31;;;;;;;11.70;4.60;;;;;;;2.12;76.76;97396.44;109085;1273;23699;-76
2024/02/02 04:44:04;;;;;;;10.60;3.20;;;;;;;2.12;76.73;97396.19;109086;1273;22484;-76
2024/02/02 04:46:38;;;;;;;11.10;4.20;;;;;;;2.11;76.73;97390.02;109101;1273;22537;-76
2024/02/02 04:49:09;;;;;;;14.40;4.20;;;;;;;2.09;76.94;97394.52;109087;1273;24240;-76
2024/02/02 04:51:42;;;;;;;8.60;4.00;;;;;;;2.07;76.54;97385.61;109135;1249;22629;-76
2024/02/02 04:54:13;;;;;;;3.80;2.10;;;;;;;2.06;76.73;97391.84;109105;1266;22689;-76
2024/02/02 04:56:44;;;;;;;10.30;4.20;;;;;;;2.04;76.99;97395.60;109125;1273;24593;-76
2024/02/02 04:59:17;;;;;;;10.70;3.60;;;;;;;2.05;77.19;97402.84;109131;1272;22527;-76
2024/02/02 05:01:51;;;;;;;13.40;4.10;;;;;;;2.04;77.23;97391.61;109156;1273;22556;-76
2024/02/02 05:04:22;;;;;;;16.30;4.90;;;;;;;2.04;77.22;97403.32;109056;1266;23234;-76
2024/02/02 05:06:55;;;;;;;15.30;5.40;;;;;;;2.02;77.31;97413.27;109087;1273;22525;-76
2024/02/02 05:09:28;;;;;;;9.70;3.60;;;;;;;2.01;77.46;97418.13;109126;1273;22517;-76
2024/02/02 05:12:04;;;;;;;6.80;2.70;;;;;;;1.98;77.51;97418.70;109087;1273;24939;-76
2024/02/02 05:14:35;;;;;;;8.00;3.30;;;;;;;1.95;77.38;97428.50;109132;1272;22602;-76
2024/02/02 05:17:10;;;;;;;9.20;3.80;;;;;;;1.94;77.49;97436.36;109073;1273;22701;-76
2024/02/02 05:19:40;;;;;;;14.30;4.00;;;;;;;1.93;77.46;97433.30;109141;1273;22520;-75
2024/02/02 05:22:11;;;;;;;14.00;4.20;;;;;;;1.93;77.73;97432.38;109138;1272;22517;-76
2024/02/02 05:24:45;;;;;;;7.20;4.00;;;;;;;1.90;77.67;97430.98;109134;1269;22962;-76
2024/02/02 05:27:18;;;;;;;14.60;5.30;;;;;;;1.89;77.75;97436.17;109120;1272;24218;-76
2024/02/02 05:29:51;;;;;;;7.00;3.00;;;;;;;1.87;77.74;97438.23;109141;1272;22571;-75
2024/02/02 05:32:23;;;;;;;19.30;4.60;;;;;;;1.86;77.83;97433.92;109076;1271;23563;-76
2024/02/02 05:34:56;;;;;;;12.70;4.00;;;;;;;1.88;77.89;97426.23;109075;1273;22539;-75
2024/02/02 05:37:27;;;;;;;8.50;3.80;;;;;;;1.87;77.80;97432.08;109092;1273;22557;-75
2024/02/02 05:39:58;;;;;;;10.50;5.00;;;;;;;1.87;77.69;97431.95;109076;1269;24234;-75
2024/02/02 05:42:30;;;;;;;8.60;4.30;;;;;;;1.86;77.95;97434.65;109116;1272;23868;-75
2024/02/02 05:45:01;;;;;;;8.60;3.80;;;;;;;1.85;78.09;97432.77;109101;1262;24160;-76
2024/02/02 05:47:35;;;;;;;11.40;3.60;;;;;;;1.84;78.00;97440.73;109130;1265;22457;-76
2024/02/02 05:50:10;;;;;;;9.00;3.70;;;;;;;1.82;77.70;97442.11;109111;1273;22530;-75
2024/02/02 05:52:48;;;;;;;7.00;2.70;;;;;;;1.83;77.49;97442.56;109121;1273;22585;-76
2024/02/02 05:55:20;;;;;;;9.20;3.60;;;;;;;1.81;77.39;97443.33;109084;1273;22922;-75
2024/02/02 05:57:58;;;;;;;10.30;4.20;;;;;;;1.80;77.54;97447.23;109082;1272;23855;-75
2024/02/02 06:00:32;;;;;;;7.90;3.00;;;;;;;1.82;77.51;97446.02;109107;1266;22540;-75
2024/02/02 06:03:03;;;;;;;12.90;4.10;;;;;;;1.82;77.59;97449.47;109138;1272;22560;-76
2024/02/02 06:05:35;;;;;;;10.60;3.90;;;;;;;1.82;77.71;97450.31;109126;1273;22487;-75
2024/02/02 06:08:13;;;;;;;8.60;3.60;;;;;;;1.82;77.80;97445.81;109153;1266;22600;-75
2024/02/02 06:10:45;;;;;;;6.80;2.80;;;;;;;1.83;78.03;97452.70;109121;1266;25267;-75
2024/02/02 06:13:21;;;;;;;11.40;4.20;;;;;;;1.83;78.12;97454.43;109087;1272;22550;-75
2024/02/02 06:15:57;;;;;;;14.60;4.70;;;;;;;1.84;78.50;97450.14;109086;1272;22558;-75
2024/02/02 06:18:27;;;;;;;12.50;3.90;;;;;;;1.85;79.04;97459.14;109107;1272;22517;-75
2024/02/02 06:20:58;;;;;;;11.00;4.10;;;;;;;1.86;79.32;97462.23;109131;1272;23010;-76
2024/02/02 06:23:29;;;;;;;12.10;4.50;;;;;;;1.87;79.63;97457.93;109056;1273;24319;-76
2024/02/02 06:26:02;;;;;;;14.70;4.30;;;;;;;1.88;79.83;97462.52;109088;1265;22585;-76
2024/02/02 06:28:36;;;;;;;11.70;4.80;;;;;;;1.88;79.92;97462.24;109100;1272;25418;-75
2024/02/02 06:31:08;;;;;;;12.70;4.70;;;;;;;1.89;79.99;97461.80;109095;1272;22558;-75
2024/02/02 06:33:40;;;;;;;10.30;4.30;;;;;;;1.91;80.03;97448.52;109126;1272;22517;-75
2024/02/02 06:36:15;;;;;;;7.70;3.80;;;;;;;1.93;80.42;97445.02;109116;1272;22571;-75
2024/02/02 06:38:49;;;;;;;8.70;4.10;;;;;;;1.94;80.47;97444.96;109079;1273;22461;-76
2024/02/02 06:41:20;;;;;;;6.30;3.10;;;;;;;1.94;80.44;97436.60;109071;1273;22990;-76
2024/02/02 06:43:51;;;;;;;12.70;4.60;;;;;;;1.93;80.67;97443.40;109068;1273;22574;-76
2024/02/02 06:46:24;;;;;;;8.90;3.40;;;;;;;1.94;80.71;97440.02;109123;1266;25252;-75
2024/02/02 06:48:57;;;;;;;6.60;2.70;;;;;;;1.94;80.68;97444.20;109128;1266;25438;-76
2024/02/02 06:51:28;;;;;;;9.80;3.40;;;;;;;1.94;80.99;97442.59;109128;1265;23736;-75
2024/02/02 06:53:59;;;;;;;17.10;4.60;;;;;;;1.95;80.95;97448.23;109097;1266;23021;-75
2024/02/02 06:56:41;;;;;;;9.30;3.50;;;;;;;1.94;80.98;97454.09;109070;1273;22475;-75
2024/02/02 06:59:15;;;;;;;8.70;3.90;;;;;;;1.92;81.41;97455.79;109128;1272;22524;-76
2024/02/02 07:01:48;;;;;;;7.60;3.80;;;;;;;1.87;81.63;97458.98;108999;1273;22602;-75
2024/02/02 07:04:21;;;;;;;12.50;4.40;;;;;;;1.82;82.20;97459.02;109070;1273;26043;-75
2024/02/02 07:06:55;;;;;;;7.50;4.20;;;;;;;1.80;82.62;97455.63;109057;1266;22515;-75
2024/02/02 07:09:40;;;;;;;16.30;6.30;;;;;;;1.78;83.52;97454.14;109114;1266;22517;-75
2024/02/02 07:12:45;;;;;;;9.50;4.80;;;;;;;1.77;83.63;97458.73;109099;1272;24177;-75
2024/02/02 07:15:18;;;;;;;11.00;5.20;;;;;;;1.78;84.03;97460.10;109100;1250;22522;-75
2024/02/02 07:17:50;;;;;;;11.90;5.60;;;;;;;1.81;84.62;97463.07;109122;1269;22527;-75
2024/02/02 07:20:57;;;;;;;8.70;5.20;;;;;;;1.85;84.88;97468.35;109071;1266;22877;-75
2024/02/02 07:23:39;;;;;;;9.30;5.20;;;;;;;1.88;84.98;97467.42;109082;1266;22535;-76
2024/02/02 07:26:25;;;;;;;13.20;6.20;;;;;;;1.89;84.87;97471.36;109111;1266;22491;-76
2024/02/02 07:29:02;;;;;;;11.00;5.60;;;;;;;1.93;85.22;97467.90;109120;1264;22529;-76
2024/02/02 07:31:39;;;;;;;14.60;6.40;;;;;;;1.96;85.38;97461.86;109160;1273;22514;-75
2024/02/02 07:34:31;;;;;;;11.40;5.40;;;;;;;2.00;85.14;97468.02;109103;1271;22546;-75
2024/02/02 07:37:14;;;;;;;12.00;4.90;;;;;;;2.03;84.95;97471.27;109139;1272;22472;-75
2024/02/02 07:39:45;;;;;;;17.50;7.50;;;;;;;2.03;84.63;97461.05;109115;1267;22541;-76
2024/02/02 07:42:21;;;;;;;12.80;4.60;;;;;;;2.06;84.64;97455.06;109100;1266;22530;-75
2024/02/02 07:44:57;;;;;;;10.90;5.70;;;;;;;2.07;84.61;97456.62;109123;1272;22581;-75
2024/02/02 07:47:30;;;;;;;13.30;5.30;;;;;;;2.07;84.65;97462.01;109127;1272;22517;-75
2024/02/02 07:50:06;;;;;;;11.00;4.40;;;;;;;2.07;84.71;97461.65;109110;1272;22482;-76
2024/02/02 07:52:38;;;;;;;14.00;5.10;;;;;;;2.07;84.63;97462.65;109110;1273;22572;-75
2024/02/02 07:55:09;;;;;;;9.10;4.30;;;;;;;2.06;84.54;97463.98;109117;1267;23111;-76
2024/02/02 07:57:43;;;;;;;13.40;4.80;;;;;;;2.07;84.42;97458.15;109154;1272;22531;-75
2024/02/02 08:00:20;;;;;;;10.10;5.10;;;;;;;2.08;84.86;97449.29;109113;1272;25949;-75
2024/02/02 08:02:56;;;;;;;13.30;5.20;;;;;;;2.05;84.87;97461.85;109096;1272;25453;-75
2024/02/02 08:05:38;;;;;;;16.00;6.00;;;;;;;2.03;84.99;97461.30;109103;1272;22598;-75
2024/02/02 08:08:10;;;;;;;10.40;4.30;;;;;;;2.02;85.06;97466.33;109106;1272;22543;-75
2024/02/02 08:10:49;;;;;;;15.30;6.70;;;;;;;2.00;85.08;97481.23;109083;1272;23084;-75
2024/02/02 08:13:22;;;;;;;12.40;5.20;;;;;;;1.97;85.29;97485.67;109095;1272;22499;-76
2024/02/02 08:15:55;;;;;;;10.60;4.70;;;;;;;1.95;85.00;97499.02;109148;1265;26161;-76
2024/02/02 08:18:32;;;;;;;9.70;3.80;;;;;;;1.94;84.81;97492.67;109096;1249;22647;-76
2024/02/02 08:21:08;;;;;;;7.50;3.90;;;;;;;1.94;84.53;97493.31;109100;1269;25421;-76
2024/02/02 08:23:48;;;;;;;11.20;4.80;;;;;;;1.83;84.64;97499.72;109034;1267;31225;-75
2024/02/02 08:26:21;;;;;;;9.10;4.40;;;;;;;1.70;84.78;97511.33;109059;1266;22567;-76
2024/02/02 08:28:52;;;;;;;11.80;5.30;;;;;;;1.63;85.14;97515.27;109096;1272;24343;-75
2024/02/02 08:31:27;;;;;;;10.40;4.10;;;;;;;1.52;85.66;97516.84;109062;1272;22524;-75
2024/02/02 08:33:59;;;;;;;12.80;3.60;;;;;;;1.47;85.99;97516.20;109108;1265;22630;-75
2024/02/02 08:36:30;;;;;;;13.30;3.50;;;;;;;1.46;86.09;97522.30;109101;1265;22565;-75
2024/02/02 08:39:05;;;;;;;8.70;3.60;;;;;;;1.49;86.08;97523.43;109144;1272;25291;-75
2024/02/02 08:41:40;;;;;;;11.50;3.60;;;;;;;1.51;86.29;97528.94;109070;1266;24250;-76
2024/02/02 08:44:27;;;;;;;12.60;3.40;;;;;;;1.51;86.36;97514.83;109105;1273;22584;-76
2024/02/02 08:47:01;;;;;;;12.70;4.70;;;;;;;1.50;86.29;97523.04;109084;1269;24348;-76
2024/02/02 08:49:53;;;;;;;29.50;3.70;;;;;;;1.52;86.36;97523.92;109094;1272;22657;-76
2024/02/02 08:52:34;;;;;;;13.00;4.70;;;;;;;1.53;86.49;97528.17;109104;1272;22550;-76
2024/02/02 08:55:24;;;;;;;12.30;4.70;;;;;;;1.51;86.49;97529.46;109088;1272;22547;-75
2024/02/02 08:58:13;;;;;;;15.60;4.00;;;;;;;1.52;86.54;97536.21;109140;1269;22525;-75
2024/02/02 09:00:45;;;;;;;16.70;5.00;;;;;;;1.51;86.54;97537.70;109095;1273;24419;-74
2024/02/02 09:03:43;;;;;;;16.10;3.90;;;;;;;1.49;86.88;97536.98;109143;1272;22585;-75
2024/02/02 09:06:45;;;;;;;14.70;4.00;;;;;;;1.51;86.44;97538.75;109121;1272;22574;-75
2024/02/02 09:09:21;;;;;;;13.00;3.20;;;;;;;1.52;86.63;97542.85;109130;1267;22643;-75
2024/02/02 09:11:53;;;;;;;12.20;3.60;;;;;;;1.54;86.20;97542.52;109112;1272;22507;-75
2024/02/02 09:14:24;;;;;;;15.50;3.50;;;;;;;1.55;86.04;97542.88;109102;1273;22462;-75
2024/02/02 09:16:57;;;;;;;8.50;2.90;;;;;;;1.58;85.80;97543.05;109117;1272;22564;-75
2024/02/02 09:19:41;;;;;;;11.30;2.50;;;;;;;1.60;85.56;97550.08;109093;1272;23436;-75
2024/02/02 09:22:18;;;;;;;15.70;3.20;;;;;;;1.64;84.90;97544.56;109107;1266;22516;-75
2024/02/02 09:24:53;;;;;;;13.60;3.00;;;;;;;1.67;84.48;97539.27;109105;1273;22500;-75
2024/02/02 09:27:35;;;;;;;11.70;3.40;;;;;;;1.72;84.42;97540.70;109146;1269;24183;-75
2024/02/02 09:30:19;;;;;;;12.80;3.00;;;;;;;1.76;83.98;97537.67;109088;1272;22916;-75
2024/02/02 09:32:53;;;;;;;8.00;2.80;;;;;;;1.75;83.58;97540.09;109096;1266;22521;-76
2024/02/02 09:35:49;;;;;;;9.70;2.90;;;;;;;1.74;83.36;97540.02;109098;1273;22544;-75
2024/02/02 09:38:24;;;;;;;9.10;3.20;;;;;;;1.77;83.23;97532.48;109118;1273;22515;-75
2024/02/02 09:41:23;;;;;;;11.10;3.20;;;;;;;1.81;82.93;97535.90;109147;1262;22562;-76
2024/02/02 09:44:06;;;;;;;10.80;2.80;;;;;;;1.89;82.39;97540.63;109061;1269;22690;-76
2024/02/02 09:46:52;;;;;;;12.50;3.70;;;;;;;1.98;82.61;97545.02;109129;1266;23434;-76
2024/02/02 09:49:40;;;;;;;13.50;3.30;;;;;;;2.09;82.49;97536.69;109094;1269;25281;-76
2024/02/02 09:52:30;;;;;;;8.20;3.20;;;;;;;2.17;82.20;97531.87;109075;1269;24354;-75
2024/02/02 09:55:14;;;;;;;12.20;4.30;;;;;;;2.22;81.90;97542.64;109094;1269;22531;-76
2024/02/02 09:57:55;;;;;;;13.70;4.40;;;;;;;2.24;81.20;97535.92;109116;1273;22620;-75
2024/02/02 10:00:41;;;;;;;15.80;3.70;;;;;;;2.21;80.71;97535.69;109081;1273;24228;-75
2024/02/02 10:03:26;;;;;;;14.90;4.40;;;;;;;2.16;80.02;97538.07;109081;1273;22546;-75
2024/02/02 10:06:13;;;;;;;13.50;3.50;;;;;;;2.12;79.86;97540.80;109076;1272;22521;-76
2024/02/02 10:08:58;;;;;;;10.80;3.70;;;;;;;2.12;80.00;97534.60;109096;1273;22513;-75
2024/02/02 10:11:53;;;;;;;15.50;3.90;;;;;;;2.14;79.90;97533.61;109091;1262;24202;-75
2024/02/02 10:14:44;;;;;;;13.40;3.60;;;;;;;2.15;79.32;97530.39;109096;1273;22541;-75
2024/02/02 10:17:36;;;;;;;14.10;4.70;;;;;;;2.19;78.87;97537.38;109134;1273;22543;-74
2024/02/02 10:20:23;;;;;;;13.00;3.60;;;;;;;2.28;79.23;97533.73;109132;1269;25424;-75
2024/02/02 10:23:33;;;;;;;9.00;2.60;;;;;;;2.41;79.15;97528.47;109108;1273;22611;-75
2024/02/02 10:26:28;;;;;;;14.20;4.00;;;;;;;2.44;78.29;97526.13;109110;1273;22531;-75
2024/02/02 10:29:10;;;;;;;13.00;3.80;;;;;;;2.41;77.97;97524.17;109128;1273;22532;-75
2024/02/02 10:32:03;;;;;;;9.30;3.40;;;;;;;2.39;78.04;97524.41;109133;1272;22595;-75
2024/02/02 10:34:47;;;;;;;7.30;2.70;;;;;;;2.36;77.76;97525.80;109108;1272;22521;-75
2024/02/02 10:37:32;;;;;;;10.50;4.40;;;;;;;2.32;77.15;97522.52;109068;1265;22510;-75
2024/02/02 10:40:26;;;;;;;9.60;3.60;;;;;;;2.32;77.26;97527.55;109092;1273;22590;-75
2024/02/02 10:43:14;;;;;;;11.00;3.30;;;;;;;2.38;76.94;97515.98;109118;1265;22561;-75
2024/02/02 10:46:04;;;;;;;15.00;4.10;;;;;;;2.46;76.99;97506.69;109084;1271;23864;-75
2024/02/02 10:48:57;;;;;;;12.80;3.40;;;;;;;2.64;77.58;97509.14;109118;1269;22523;-75
2024/02/02 10:51:46;;;;;;;44.90;17.30;;;;;;;2.87;77.30;97499.60;109160;1273;22574;-76
2024/02/02 10:54:41;;;;;;;13.40;4.20;;;;;;;2.96;76.73;97493.09;109098;1273;23299;-76
2024/02/02 10:57:25;;;;;;;12.60;3.00;;;;;;;3.02;76.70;97491.60;109118;1272;22567;-76
2024/02/02 11:00:11;;;;;;;8.80;3.40;;;;;;;3.05;75.68;97481.11;109113;1273;22500;-75
2024/02/02 11:03:02;;;;;;;11.50;3.50;;;;;;;2.99;75.07;97481.23;109088;1273;22545;-76
2024/02/02 11:05:49;;;;;;;8.10;3.30;;;;;;;2.94;73.58;97472.30;109104;1269;22529;-75
2024/02/02 11:08:28;;;;;;;9.00;3.50;;;;;;;2.85;72.80;97477.58;109103;1269;22477;-75
2024/02/02 11:11:11;;;;;;;10.30;3.80;;;;;;;2.86;73.13;97479.63;109113;1273;22535;-75
2024/02/02 11:13:52;;;;;;;11.50;4.20;;;;;;;2.90;73.00;97474.81;109090;1269;22880;-76
2024/02/02 11:16:57;;;;;;;12.00;4.10;;;;;;;2.97;73.15;97471.20;109006;1273;22517;-75
2024/02/02 11:19:50;;;;;;;14.30;4.50;;;;;;;3.20;72.38;97468.58;109117;1266;24301;-76
2024/02/02 11:22:36;;;;;;;7.30;3.40;;;;;;;3.49;72.17;97460.14;109110;1273;24350;-76
2024/02/02 11:25:22;;;;;;;10.20;3.70;;;;;;;3.74;72.16;97459.73;109113;1269;22513;-76
2024/02/02 11:28:05;;;;;;;9.70;3.50;;;;;;;3.99;71.26;97458.23;109140;1272;22735;-76
2024/02/02 11:30:54;;;;;;;11.60;4.00;;;;;;;3.98;69.73;97457.73;109155;1250;23326;-76
2024/02/02 11:33:48;;;;;;;12.20;3.60;;;;;;;3.94;69.47;97450.04;109092;1266;22555;-76
2024/02/02 11:36:36;;;;;;;14.90;4.30;;;;;;;4.09;69.31;97444.30;109100;1250;23275;-76
2024/02/02 11:39:25;;;;;;;10.70;2.60;;;;;;;4.31;69.45;97434.69;109098;1273;22517;-76
2024/02/02 11:41:59;;;;;;;13.20;4.40;;;;;;;4.33;68.22;97433.64;109091;1272;22682;-76
2024/02/02 11:44:30;;;;;;;17.50;6.20;;;;;;;4.33;67.99;97433.11;109089;1266;22542;-76
2024/02/02 11:47:06;;;;;;;8.30;2.90;;;;;;;4.09;67.04;97439.70;109106;1273;23772;-76
2024/02/02 11:49:49;;;;;;;26.10;8.50;;;;;;;3.75;67.34;97438.58;109127;1250;22641;-76
2024/02/02 11:52:31;;;;;;;9.30;3.50;;;;;;;3.58;67.68;97437.66;109124;1266;22581;-75
2024/02/02 11:55:08;;;;;;;10.80;4.20;;;;;;;3.39;67.74;97429.61;109110;1272;22525;-75
2024/02/02 11:57:48;;;;;;;14.30;4.50;;;;;;;3.29;68.15;97423.75;109091;1272;25307;-75
2024/02/02 12:00:36;;;;;;;10.40;3.70;;;;;;;3.23;68.23;97418.22;109128;1272;22550;-75
2024/02/02 12:03:37;;;;;;;8.10;3.40;;;;;;;3.06;68.06;97425.98;108994;1272;164573;-75
2024/02/02 12:06:15;;;;;;;10.10;3.80;;;;;;;3.10;68.74;97427.29;109173;1266;22462;-75
2024/02/02 12:09:11;;;;;;;10.30;3.20;;;;;;;3.17;68.16;97425.30;109112;1265;22512;-75
2024/02/02 12:11:53;;;;;;;10.80;3.10;;;;;;;3.18;67.99;97416.75;109095;1266;22567;-75
2024/02/02 12:14:33;;;;;;;14.80;3.90;;;;;;;3.07;67.00;97419.24;109135;1266;23981;-75